KLOM

Details ICAO KLOM (BBX)
Name Wings Field
Region United States
Timezone America/New_York (UTC-5.0)
Plans Departing 61
Arriving 26
Stats Elevation 301 ft / 92 m (AMSL)
Location 40.137600° -75.265100°
Runways 1
Magnetic Variation 12.078° W
Sunrise 2020-01-24 12:18:02 UTC / 2020-01-24 07:18:02 Local
Sunset 2020-01-24 22:10:19 UTC / 2020-01-24 17:10:19 Local
Advertisement - Login to hide

Runways

ID Width Length Bearing (true/mag) Surface Threshold Overrun Markings Lighting
06 75 ft / 23 m 3,704 ft / 1,129 m 53.00° / 65.07° ASPHALT 177 ft / 54 m 98 ft / 30 m APP CENTERLINE EDGE THRESHOLD
24 75 ft / 23 m 3,704 ft / 1,129 m 233.00° / 245.08° ASPHALT 0 ft / 0 m 0 ft / 0 m APP CENTERLINE EDGE THRESHOLD

Map

Weather


0- 5 10 15 20 25 30 35+ Temperature / °C

Clouds and Precipitation
Forecast for 2020-01-24 06:00 UTC. Updated 5 hours ago

Ground ~20,000 ft ~40,000 ft Winds

METAR

KLOM 240835Z AUTO 00000KT 10SM CLR M03/M05 A3033 RMK AO2 T10311048

TAF

Not found

Frequencies

Unicom 123.00 MHz Wings Field Unicom
Departure 126.85 MHz Philadelphia Departure
Recorded 118.93 MHz Wings Field AWOS
Approach 126.85 MHz Philadelphia Approach
Warning: Do not use this data for real-world aviation or navigation. No guarantee of current accuracy is given.